Time;durP1;ratioP1;P1;durP2;ratioP2;P2;SDS_P1;SDS_P2;PMS_P1;PMS_P2;Temp;Humidity;BMP_temperature;BMP_pressure;BME280_temperature;BME280_humidity;BME280_pressure;Samples;Min_cycle;Max_cycle;Signal;HPM_P1;HPM_P2
2023/01/28 00:00:05;;;;;;;9.50;6.47;;;;;;;-1.09;88.68;96017.09;5069138;28;20199;-78
2023/01/28 00:02:33;;;;;;;7.30;6.03;;;;;;;-1.23;89.33;96012.63;5070009;28;20181;-78
2023/01/28 00:04:59;;;;;;;8.80;5.87;;;;;;;-1.17;88.76;96017.44;5054002;28;20240;-79
2023/01/28 00:07:24;;;;;;;7.50;6.27;;;;;;;-1.30;88.97;96013.75;5052541;28;20197;-78
2023/01/28 00:09:49;;;;;;;7.70;5.90;;;;;;;-1.33;90.02;96016.41;5052058;28;20252;-79
2023/01/28 00:12:15;;;;;;;9.60;6.27;;;;;;;-1.18;89.57;96018.34;5051879;28;20399;-79
2023/01/28 00:14:40;;;;;;;10.20;6.17;;;;;;;-1.31;89.96;96014.66;5048520;28;20193;-78
2023/01/28 00:17:05;;;;;;;9.40;6.47;;;;;;;-1.25;89.11;96020.31;5060975;28;20194;-79
2023/01/28 00:19:30;;;;;;;9.83;6.30;;;;;;;-1.13;89.30;96024.06;5063742;28;20195;-78
2023/01/28 00:21:56;;;;;;;7.77;6.10;;;;;;;-1.31;90.04;96019.75;5042972;28;20619;-79
2023/01/28 00:24:21;;;;;;;9.63;6.53;;;;;;;-1.23;89.22;96022.81;5040709;28;20226;-79
2023/01/28 00:26:46;;;;;;;9.13;6.23;;;;;;;-1.27;90.16;96018.72;5043069;28;20200;-78
2023/01/28 00:29:12;;;;;;;9.93;6.80;;;;;;;-1.20;89.58;96022.66;5057395;28;20186;-79
2023/01/28 00:31:39;;;;;;;10.17;6.23;;;;;;;-1.25;89.78;96027.94;5055078;28;20200;-77
2023/01/28 00:34:05;;;;;;;9.50;6.43;;;;;;;-1.25;89.73;96025.41;5055869;28;20212;-79
2023/01/28 00:36:30;;;;;;;9.30;6.50;;;;;;;-1.14;89.28;96027.53;5064007;28;20177;-78
2023/01/28 00:38:57;;;;;;;9.13;6.23;;;;;;;-1.22;90.00;96021.91;5045428;28;20207;-79
2023/01/28 00:41:24;;;;;;;9.53;6.60;;;;;;;-1.30;89.87;96022.22;5040290;28;20212;-78
2023/01/28 00:43:50;;;;;;;8.10;5.47;;;;;;;-1.31;90.12;96022.31;5037098;28;20188;-79
2023/01/28 00:46:16;;;;;;;8.50;5.97;;;;;;;-1.20;89.64;96023.50;5038325;28;20185;-77
2023/01/28 00:48:42;;;;;;;9.67;6.30;;;;;;;-1.20;89.92;96023.50;5037731;28;20602;-77
2023/01/28 00:51:09;;;;;;;9.27;6.03;;;;;;;-1.35;90.58;96033.50;5041506;28;20204;-77
2023/01/28 00:53:36;;;;;;;7.50;5.77;;;;;;;-1.20;90.04;96030.31;5058545;28;20713;-78
2023/01/28 00:56:02;;;;;;;9.67;6.03;;;;;;;-1.24;89.57;96027.06;5054240;28;20178;-77
2023/01/28 00:58:27;;;;;;;8.40;5.80;;;;;;;-1.26;89.97;96018.66;5047574;28;20592;-77
2023/01/28 01:00:52;;;;;;;7.63;5.43;;;;;;;-1.18;89.56;96016.59;5030290;28;20217;-78
2023/01/28 01:03:18;;;;;;;7.37;5.83;;;;;;;-1.34;89.95;96018.13;5057995;28;20189;-79
2023/01/28 01:05:43;;;;;;;7.17;5.03;;;;;;;-1.21;90.20;96010.81;5037156;28;20206;-78
2023/01/28 01:08:09;;;;;;;8.00;5.07;;;;;;;-1.30;90.12;96013.75;5047309;28;20238;-77
2023/01/28 01:10:36;;;;;;;8.57;5.07;;;;;;;-1.13;89.16;96015.59;5043953;28;20214;-78
2023/01/28 01:13:03;;;;;;;7.43;5.27;;;;;;;-1.30;89.95;96008.66;5044442;28;20192;-79
2023/01/28 01:15:28;;;;;;;8.93;5.37;;;;;;;-1.38;90.20;96013.25;5043607;28;20607;-77
2023/01/28 01:17:53;;;;;;;8.10;5.67;;;;;;;-1.27;89.93;96013.63;5047238;28;20210;-78
2023/01/28 01:20:26;;;;;;;6.80;4.77;;;;;;;-1.35;90.88;96021.59;5063128;28;20199;-78
2023/01/28 01:22:51;;;;;;;9.07;5.40;;;;;;;-1.17;89.15;96017.44;5054442;28;20179;-78
2023/01/28 01:25:17;;;;;;;5.97;4.77;;;;;;;-1.19;88.65;96017.50;5046404;28;20309;-78
2023/01/28 01:27:44;;;;;;;7.50;5.47;;;;;;;-1.12;88.86;96020.63;5064011;28;20187;-78
2023/01/28 01:30:11;;;;;;;8.07;5.30;;;;;;;-1.24;89.86;96016.03;5054870;28;20345;-78
2023/01/28 01:32:36;;;;;;;6.60;5.53;;;;;;;-1.27;89.85;96018.72;5047953;28;20192;-78
2023/01/28 01:35:05;;;;;;;6.23;4.73;;;;;;;-1.26;89.81;96017.81;5038200;28;20531;-76
2023/01/28 01:37:30;;;;;;;6.27;4.60;;;;;;;-1.25;89.61;96020.31;5045276;28;20187;-77
2023/01/28 01:39:56;;;;;;;8.40;5.50;;;;;;;-1.25;89.89;96025.41;5051271;28;20266;-77
2023/01/28 01:42:21;;;;;;;6.07;4.23;;;;;;;-1.30;89.67;96034.16;5058738;28;20219;-80
2023/01/28 01:44:49;;;;;;;6.60;5.03;;;;;;;-1.26;90.05;96031.38;5057936;28;20220;-77
2023/01/28 01:47:15;;;;;;;6.30;5.27;;;;;;;-1.38;90.78;96028.53;5053530;28;20645;-77
2023/01/28 01:49:41;;;;;;;6.13;4.40;;;;;;;-1.17;89.79;96032.72;5051191;28;20187;-78
2023/01/28 01:52:11;;;;;;;6.17;4.20;;;;;;;-1.19;89.84;96035.34;5042740;28;20208;-77
2023/01/28 01:54:38;;;;;;;6.17;4.77;;;;;;;-1.09;89.10;96029.84;5041455;28;20232;-77
2023/01/28 01:57:04;;;;;;;6.73;5.03;;;;;;;-1.18;89.30;96021.69;5042776;28;20286;-78
2023/01/28 01:59:32;;;;;;;6.90;4.73;;;;;;;-1.26;89.91;96033.09;5043692;28;20245;-77
2023/01/28 02:02:00;;;;;;;6.43;4.90;;;;;;;-1.10;89.58;96033.31;5054500;28;20209;-78
2023/01/28 02:04:28;;;;;;;7.03;4.37;;;;;;;-1.31;90.10;96028.22;5030524;28;20771;-79
2023/01/28 02:06:54;;;;;;;5.63;4.10;;;;;;;-1.06;89.21;96022.91;5053363;28;20210;-78
2023/01/28 02:09:28;;;;;;;6.80;4.50;;;;;;;-1.09;89.54;96028.13;5050459;28;20216;-78
2023/01/28 02:12:04;;;;;;;7.00;4.67;;;;;;;-1.10;89.97;96023.94;5050261;28;20212;-79
2023/01/28 02:14:33;;;;;;;7.13;4.87;;;;;;;-1.17;89.99;96028.44;5047784;28;20189;-78
2023/01/28 02:17:02;;;;;;;7.50;4.70;;;;;;;-1.20;90.49;96027.78;5047005;28;20193;-77
2023/01/28 02:19:38;;;;;;;7.43;4.77;;;;;;;-1.04;89.51;96028.78;5045199;28;20198;-76
2023/01/28 02:22:13;;;;;;;7.47;4.70;;;;;;;-1.02;89.38;96024.44;5055669;28;20205;-77
2023/01/28 02:25:00;;;;;;;6.53;4.70;;;;;;;-1.19;90.22;96019.22;5055403;28;20691;-77
2023/01/28 02:27:35;;;;;;;7.03;4.63;;;;;;;-1.09;89.26;96027.31;5060167;28;20756;-78
2023/01/28 02:30:18;;;;;;;6.57;4.70;;;;;;;-1.07;90.14;96028.88;5048974;28;20281;-77
2023/01/28 02:33:07;;;;;;;6.73;5.00;;;;;;;-1.01;89.27;96023.53;5042735;28;20209;-78
2023/01/28 02:35:44;;;;;;;5.63;4.47;;;;;;;-1.07;89.99;96031.44;5057667;28;20238;-78
2023/01/28 02:38:21;;;;;;;6.47;4.63;;;;;;;-1.07;90.21;96035.72;5030544;28;20250;-77
2023/01/28 02:41:04;;;;;;;6.93;4.67;;;;;;;-1.09;90.58;96030.69;5043974;28;20207;-78
2023/01/28 02:43:33;;;;;;;5.87;4.47;;;;;;;-1.30;91.99;96036.69;5049106;28;20188;-78
2023/01/28 02:48:47;;;;;;;6.97;4.83;;;;;;;-1.19;90.55;96034.53;5057428;28;20188;-78
2023/01/28 02:51:38;;;;;;;7.77;4.80;;;;;;;-1.09;90.85;96045.97;5052265;28;20200;-78
2023/01/28 02:54:12;;;;;;;6.20;4.97;;;;;;;-0.95;90.38;96033.47;5059525;28;20207;-77
2023/01/28 02:56:44;;;;;;;7.57;5.27;;;;;;;-1.12;90.79;96040.19;5048840;28;20193;-78
2023/01/28 02:59:34;;;;;;;6.70;4.50;;;;;;;-1.15;91.51;96041.13;5051041;28;20192;-79
2023/01/28 03:02:22;;;;;;;6.63;4.57;;;;;;;-1.04;91.06;96044.06;5048931;28;20235;-78
2023/01/28 03:05:21;;;;;;;9.03;5.40;;;;;;;-1.15;92.29;96041.13;5056012;28;20241;-77
2023/01/28 03:07:47;;;;;;;7.93;4.67;;;;;;;-1.12;91.85;96035.91;5043094;28;20220;-77
2023/01/28 03:10:16;;;;;;;7.73;4.90;;;;;;;-1.05;91.27;96050.06;5058629;28;20200;-78
2023/01/28 03:38:22;;;;;;;7.67;5.53;;;;;;;-0.91;92.34;96050.28;5055713;28;20267;-78
2023/01/28 03:40:55;;;;;;;7.97;5.23;;;;;;;-1.06;93.57;96061.16;5039368;28;20275;-78
2023/01/28 03:43:21;;;;;;;7.50;5.67;;;;;;;-0.99;93.86;96057.44;5062508;28;20191;-79
2023/01/28 03:45:50;;;;;;;7.93;5.87;;;;;;;-0.89;93.40;96062.97;5048132;28;20226;-78
2023/01/28 03:48:19;;;;;;;7.83;5.63;;;;;;;-0.83;92.70;96056.78;5047418;28;20295;-78
2023/01/28 03:50:45;;;;;;;8.20;5.80;;;;;;;-0.79;92.47;96055.78;5059538;28;20265;-79
2023/01/28 03:53:14;;;;;;;7.40;5.40;;;;;;;-0.81;92.90;96055.00;5048816;28;20208;-78
2023/01/28 03:55:39;;;;;;;9.23;5.87;;;;;;;-0.84;93.44;96058.50;5046028;28;20187;-79
2023/01/28 03:58:05;;;;;;;8.80;5.70;;;;;;;-0.89;93.91;96057.84;5047335;28;20687;-78
2023/01/28 04:00:31;;;;;;;8.30;5.67;;;;;;;-0.87;93.39;96062.03;5063939;28;20802;-78
2023/01/28 04:02:57;;;;;;;7.47;5.73;;;;;;;-0.87;93.42;96056.94;5061629;28;20190;-78
2023/01/28 04:05:22;;;;;;;8.60;6.00;;;;;;;-0.75;93.48;96058.09;5055641;28;20232;-78
2023/01/28 04:07:50;;;;;;;10.17;5.53;;;;;;;-0.71;93.46;96059.63;5042657;28;20188;-78
2023/01/28 04:10:16;;;;;;;8.33;6.00;;;;;;;-0.94;94.52;96060.63;5026439;28;20737;-78
2023/01/28 04:12:41;;;;;;;11.67;6.83;;;;;;;-0.82;94.02;96064.34;5055744;28;20270;-77
2023/01/28 04:15:14;;;;;;;11.80;6.90;;;;;;;-0.78;93.71;96060.81;5049754;28;20174;-78
2023/01/28 04:17:42;;;;;;;12.97;7.77;;;;;;;-0.83;94.41;96061.88;5045121;28;20195;-77
2023/01/28 04:20:09;;;;;;;10.93;6.87;;;;;;;-0.72;93.95;96067.34;5056186;28;20265;-77
2023/01/28 04:22:34;;;;;;;9.47;6.33;;;;;;;-0.78;94.89;96065.06;5051410;28;20219;-78
2023/01/28 04:24:59;;;;;;;10.80;7.53;;;;;;;-0.82;95.02;96063.53;5057022;28;20221;-79
2023/01/28 04:27:24;;;;;;;10.70;7.07;;;;;;;-0.81;95.08;96075.38;5059556;28;20200;-78
2023/01/28 04:29:50;;;;;;;9.77;6.70;;;;;;;-0.83;95.36;96077.19;5054516;28;20196;-78
2023/01/28 04:32:15;;;;;;;12.73;8.03;;;;;;;-0.80;95.27;96082.13;5041274;28;20188;-78
2023/01/28 04:34:40;;;;;;;11.10;7.20;;;;;;;-0.71;94.14;96076.63;5043268;28;20189;-77
2023/01/28 04:37:06;;;;;;;11.20;7.13;;;;;;;-0.76;94.69;96079.41;5058244;28;20212;-78
2023/01/28 04:39:31;;;;;;;11.07;7.33;;;;;;;-0.77;95.13;96074.38;5050326;28;20224;-77
2023/01/28 04:41:56;;;;;;;13.30;8.60;;;;;;;-0.88;95.46;96077.41;5044502;28;20605;-78
2023/01/28 04:44:21;;;;;;;19.73;10.83;;;;;;;-0.98;96.71;96078.66;5060199;28;20223;-78
2023/01/28 04:46:47;;;;;;;12.83;8.23;;;;;;;-0.82;95.80;96084.75;5044213;28;20191;-78
2023/01/28 04:49:12;;;;;;;12.57;7.80;;;;;;;-0.87;95.84;96079.88;5043018;28;20185;-78
2023/01/28 04:51:37;;;;;;;11.73;7.67;;;;;;;-0.99;96.66;96082.09;5043808;28;20330;-78
2023/01/28 04:54:03;;;;;;;17.77;9.83;;;;;;;-0.89;96.80;96088.47;5045275;28;20190;-78
2023/01/28 04:56:28;;;;;;;17.50;9.00;;;;;;;-0.85;96.71;96079.81;5051794;28;20189;-78
2023/01/28 04:58:53;;;;;;;15.60;9.07;;;;;;;-0.88;96.90;96085.88;5063845;28;20214;-78
2023/01/28 05:01:18;;;;;;;12.13;7.50;;;;;;;-0.75;96.77;96085.34;5047359;28;20209;-77
2023/01/28 05:03:44;;;;;;;10.37;7.33;;;;;;;-0.80;97.24;96082.13;5042386;28;20195;-78
2023/01/28 05:06:09;;;;;;;12.50;8.23;;;;;;;-0.82;97.24;96083.94;5043629;28;20239;-79
2023/01/28 05:08:34;;;;;;;9.57;6.80;;;;;;;-0.98;99.01;96082.03;5044038;28;20231;-78
2023/01/28 05:11:00;;;;;;;10.67;7.50;;;;;;;-0.87;98.80;96087.53;5041237;28;20332;-78
2023/01/28 05:13:25;;;;;;;12.17;7.57;;;;;;;-0.89;99.34;96089.28;5049271;28;20681;-79
2023/01/28 05:15:52;;;;;;;11.13;7.53;;;;;;;-0.83;99.03;96097.59;5043341;28;20203;-78
2023/01/28 05:18:17;;;;;;;11.90;8.33;;;;;;;-0.66;98.53;96090.03;5060910;28;20251;-79
2023/01/28 05:20:42;;;;;;;13.67;8.23;;;;;;;-0.62;97.52;96089.00;5044647;28;20217;-79
2023/01/28 05:23:08;;;;;;;13.50;8.97;;;;;;;-0.70;97.80;96088.53;5044842;28;20561;-79
2023/01/28 05:25:33;;;;;;;12.37;8.73;;;;;;;-0.80;99.09;96094.88;5044584;28;20231;-79
2023/01/28 05:27:58;;;;;;;12.53;7.80;;;;;;;-0.71;99.52;96097.03;5044216;28;20220;-79
2023/01/28 05:30:24;;;;;;;12.80;8.67;;;;;;;-0.73;99.30;96094.56;5044557;28;20199;-79
2023/01/28 05:32:54;;;;;;;12.73;8.47;;;;;;;-1.01;99.91;96104.28;5046520;28;20185;-78
2023/01/28 05:35:19;;;;;;;13.70;8.87;;;;;;;-0.79;100.00;96092.31;5061722;28;20193;-78
2023/01/28 05:37:44;;;;;;;15.10;9.50;;;;;;;-0.82;100.00;96099.22;5052738;28;20184;-78
2023/01/28 05:40:10;;;;;;;15.90;8.93;;;;;;;-0.82;100.00;96099.22;5056462;28;20208;-79
2023/01/28 05:42:35;;;;;;;12.83;8.80;;;;;;;-0.98;100.00;96099.03;5062108;28;20713;-79
2023/01/28 05:45:01;;;;;;;13.13;8.13;;;;;;;-0.82;100.00;96100.06;5044756;28;20228;-78
2023/01/28 05:47:26;;;;;;;12.73;8.10;;;;;;;-0.88;100.00;96108.81;5052397;28;20194;-78
2023/01/28 05:49:51;;;;;;;12.63;8.37;;;;;;;-1.11;100.00;96116.59;5046494;28;20555;-77
2023/01/28 05:52:16;;;;;;;10.13;7.60;;;;;;;-0.93;100.00;96118.38;5041534;28;20418;-76
2023/01/28 05:54:42;;;;;;;12.73;9.10;;;;;;;-0.82;100.00;96110.25;5044507;28;20182;-78
2023/01/28 05:57:07;;;;;;;12.50;8.73;;;;;;;-0.94;100.00;96111.63;5050942;28;20218;-77
2023/01/28 05:59:32;;;;;;;13.13;8.73;;;;;;;-0.98;100.00;96111.78;5056224;28;20697;-78
2023/01/28 06:01:58;;;;;;;13.60;9.67;;;;;;;-0.79;100.00;96114.44;5058196;28;20207;-77
2023/01/28 06:04:23;;;;;;;12.83;9.53;;;;;;;-0.77;100.00;96125.38;5040865;28;20240;-76
2023/01/28 06:06:48;;;;;;;12.40;9.20;;;;;;;-0.78;100.00;96123.72;5054772;28;20234;-77
2023/01/28 06:09:13;;;;;;;12.57;9.73;;;;;;;-0.67;100.00;96126.66;5039915;28;20189;-77
2023/01/28 06:11:39;;;;;;;13.10;9.57;;;;;;;-0.63;100.00;96130.72;5040995;28;20579;-77
2023/01/28 06:14:04;;;;;;;13.90;9.67;;;;;;;-0.73;100.00;96134.53;5058758;28;20202;-78
2023/01/28 06:16:29;;;;;;;14.60;9.77;;;;;;;-0.74;100.00;96143.09;5055432;28;20196;-78
2023/01/28 06:18:55;;;;;;;13.87;9.57;;;;;;;-0.74;100.00;96141.38;5058339;28;20192;-78
2023/01/28 06:21:20;;;;;;;14.77;10.47;;;;;;;-0.73;100.00;96148.13;5052081;28;20224;-78
2023/01/28 06:23:45;;;;;;;14.17;10.13;;;;;;;-0.69;100.00;96142.03;5046048;28;20179;-78
2023/01/28 06:26:11;;;;;;;17.40;11.30;;;;;;;-0.71;100.00;96155.72;5042492;28;20592;-79
2023/01/28 06:28:36;;;;;;;16.47;11.23;;;;;;;-0.62;100.00;96150.22;5047799;28;20190;-79
2023/01/28 06:31:01;;;;;;;18.33;10.77;;;;;;;-0.73;100.00;96149.84;5052727;28;20671;-78
2023/01/28 06:33:27;;;;;;;14.40;10.43;;;;;;;-0.72;100.00;96156.59;5059236;28;20276;-78
2023/01/28 06:35:53;;;;;;;15.40;11.97;;;;;;;-0.60;100.00;96154.38;5062454;28;20189;-78
2023/01/28 06:38:18;;;;;;;15.97;10.57;;;;;;;-0.74;100.00;96163.50;5045311;28;21084;-78
2023/01/28 06:40:43;;;;;;;17.13;10.83;;;;;;;-0.75;100.00;96161.84;5052135;28;20213;-78
2023/01/28 06:43:09;;;;;;;17.33;11.03;;;;;;;-0.94;100.00;96172.81;5045996;28;20200;-78
2023/01/28 06:45:34;;;;;;;20.83;13.80;;;;;;;-0.76;100.00;96176.31;5047691;28;20208;-79
2023/01/28 06:47:59;;;;;;;21.93;12.93;;;;;;;-0.75;100.00;96172.03;5052220;28;20581;-77
2023/01/28 06:50:25;;;;;;;18.67;12.33;;;;;;;-0.70;100.00;96165.03;5057928;28;20290;-78
2023/01/28 06:52:50;;;;;;;16.47;12.00;;;;;;;-0.78;100.00;96167.09;5061216;28;20195;-77
2023/01/28 06:55:15;;;;;;;15.40;12.10;;;;;;;-0.62;100.00;96168.06;5058371;28;20185;-78
2023/01/28 06:57:41;;;;;;;18.10;11.63;;;;;;;-0.74;100.00;96173.69;5063360;28;20285;-78
2023/01/28 07:00:09;;;;;;;18.73;12.83;;;;;;;-0.71;100.00;96174.38;5049012;28;20182;-79
2023/01/28 07:02:38;;;;;;;18.50;12.67;;;;;;;-0.66;100.00;96172.47;5043516;28;20208;-78
2023/01/28 07:05:04;;;;;;;20.60;15.20;;;;;;;-0.62;100.00;96180.81;5055003;28;20209;-77
2023/01/28 07:07:29;;;;;;;18.93;13.53;;;;;;;-0.73;100.00;96178.72;5063936;28;20291;-78
2023/01/28 07:09:54;;;;;;;16.07;12.53;;;;;;;-0.76;100.00;96173.78;5065551;28;20645;-78
2023/01/28 07:12:19;;;;;;;18.67;11.30;;;;;;;-0.76;100.00;96176.31;5053116;28;20199;-79
2023/01/28 07:14:45;;;;;;;18.13;13.63;;;;;;;-0.60;100.00;96179.06;5018742;28;20288;-78
2023/01/28 07:17:10;;;;;;;20.37;14.80;;;;;;;-0.68;100.00;96179.38;5042932;28;20228;-78
2023/01/28 07:19:36;;;;;;;17.87;12.77;;;;;;;-0.69;100.00;96182.81;5050232;28;20184;-78
2023/01/28 07:22:02;;;;;;;20.07;13.60;;;;;;;-0.67;100.00;96195.50;5055878;28;20209;-78
2023/01/28 07:24:28;;;;;;;18.83;13.00;;;;;;;-0.66;100.00;96182.69;5047218;28;20507;-79
2023/01/28 07:26:53;;;;;;;19.40;13.53;;;;;;;-0.66;100.00;96185.25;5075492;28;20172;-79
2023/01/28 07:29:18;;;;;;;19.47;13.63;;;;;;;-0.72;100.00;96193.13;5079422;28;20233;-78
2023/01/28 07:31:43;;;;;;;20.57;13.37;;;;;;;-0.78;100.00;96192.59;5069761;28;20457;-77
2023/01/28 07:34:09;;;;;;;20.60;13.03;;;;;;;-0.67;100.00;96190.41;5062453;28;20268;-78
2023/01/28 07:36:34;;;;;;;20.23;14.00;;;;;;;-0.66;100.00;96197.16;5035898;28;20195;-81
2023/01/28 07:38:59;;;;;;;22.37;16.40;;;;;;;-0.66;100.00;96197.16;5039714;28;20207;-78
2023/01/28 07:41:25;;;;;;;19.93;15.43;;;;;;;-0.63;100.00;96199.56;5052751;28;20208;-78
2023/01/28 07:43:50;;;;;;;27.77;17.57;;;;;;;-0.59;100.00;96201.13;5074407;28;20204;-78
2023/01/28 07:46:15;;;;;;;23.73;14.43;;;;;;;-0.59;100.00;96203.69;5065094;28;20231;-86
2023/01/28 07:48:41;;;;;;;23.50;14.90;;;;;;;-0.62;100.00;96198.69;5052696;28;20197;-78
2023/01/28 07:51:06;;;;;;;25.60;15.73;;;;;;;-0.65;100.00;96207.31;5054465;28;20287;-78
2023/01/28 07:53:31;;;;;;;23.33;15.27;;;;;;;-0.71;100.00;96209.25;5038365;28;20189;-77
2023/01/28 07:56:00;;;;;;;23.60;14.37;;;;;;;-0.63;100.00;96208.06;5039804;28;20185;-78
2023/01/28 07:58:26;;;;;;;21.70;13.90;;;;;;;-0.64;100.00;96213.22;5056688;28;20203;-78
2023/01/28 08:00:55;;;;;;;25.90;16.07;;;;;;;-0.67;100.00;96215.91;5040621;28;20207;-78
2023/01/28 08:03:20;;;;;;;20.57;14.10;;;;;;;-0.60;100.00;96220.72;5051537;28;20216;-78
2023/01/28 08:05:49;;;;;;;28.50;16.70;;;;;;;-0.51;100.00;96223.78;5045438;28;20204;-79
2023/01/28 08:08:16;;;;;;;23.00;15.47;;;;;;;-0.62;100.00;96219.94;5054664;28;20187;-79
2023/01/28 08:10:42;;;;;;;22.43;14.73;;;;;;;-0.64;100.00;96220.88;5036645;28;20292;-79
2023/01/28 08:13:08;;;;;;;22.30;16.07;;;;;;;-0.47;100.00;96220.19;5048791;28;20196;-79
2023/01/28 08:15:35;;;;;;;26.43;17.00;;;;;;;-0.38;100.00;96223.16;5046662;28;20189;-79
2023/01/28 08:18:03;;;;;;;24.30;15.63;;;;;;;-0.40;100.00;96221.59;5043823;28;20260;-80
2023/01/28 08:20:28;;;;;;;23.63;16.63;;;;;;;-0.55;100.00;96225.59;5046370;28;20224;-79
2023/01/28 08:23:06;;;;;;;28.93;18.40;;;;;;;-0.35;100.00;96233.28;5052416;28;20192;-79
2023/01/28 08:25:32;;;;;;;24.20;16.43;;;;;;;-0.26;100.00;96236.34;5047372;28;20207;-79
2023/01/28 08:27:58;;;;;;;29.93;16.00;;;;;;;-0.44;100.00;96228.56;5046128;28;20201;-79
2023/01/28 08:30:23;;;;;;;23.53;15.93;;;;;;;-0.37;100.00;96237.59;5053468;28;20212;-79
2023/01/28 08:32:48;;;;;;;21.93;15.50;;;;;;;-0.30;99.79;96233.88;5040968;28;20193;-79
2023/01/28 08:35:14;;;;;;;20.30;15.33;;;;;;;-0.07;99.80;96229.53;5043638;28;20181;-79
2023/01/28 08:37:39;;;;;;;22.57;17.30;;;;;;;0.00;99.20;96233.50;5043036;28;20738;-79
2023/01/28 08:40:05;;;;;;;21.50;16.17;;;;;;;-0.02;98.60;96235.25;5053390;28;20211;-79
2023/01/28 08:42:30;;;;;;;21.17;14.97;;;;;;;-0.14;98.95;96230.69;5058298;28;20204;-80
2023/01/28 08:44:55;;;;;;;20.67;13.83;;;;;;;0.07;98.29;96228.91;5045712;28;20610;-78
2023/01/28 08:47:21;;;;;;;21.93;15.30;;;;;;;-0.07;99.05;96230.38;5045990;28;20194;-78
2023/01/28 08:49:46;;;;;;;22.77;16.10;;;;;;;0.02;97.94;96231.69;5046803;28;20189;-78
2023/01/28 08:52:11;;;;;;;21.10;14.43;;;;;;;-0.02;97.43;96230.97;5039058;28;20217;-79
2023/01/28 08:54:37;;;;;;;26.63;15.97;;;;;;;0.10;97.43;96233.91;5041509;28;20560;-78
2023/01/28 08:57:02;;;;;;;23.23;15.57;;;;;;;0.23;97.00;96238.38;5052267;28;20204;-79
2023/01/28 08:59:28;;;;;;;20.77;13.73;;;;;;;-0.13;97.68;96245.09;5039794;28;20308;-78
2023/01/28 09:01:53;;;;;;;22.83;13.73;;;;;;;0.03;97.55;96246.13;5046052;28;20552;-79
2023/01/28 09:04:18;;;;;;;22.43;14.37;;;;;;;-0.11;97.10;96248.41;5050751;28;20243;-78
2023/01/28 09:06:44;;;;;;;18.83;13.60;;;;;;;-0.08;97.34;96249.13;5057079;28;20191;-78
2023/01/28 09:09:09;;;;;;;17.90;12.50;;;;;;;-0.16;96.88;96243.53;5053471;28;20198;-79
2023/01/28 09:11:34;;;;;;;26.73;17.97;;;;;;;-0.04;97.71;96250.66;5064533;28;20209;-79
2023/01/28 09:14:00;;;;;;;29.43;18.80;;;;;;;-0.05;96.97;96249.00;5032060;28;20189;-79
2023/01/28 09:16:25;;;;;;;22.87;15.40;;;;;;;-0.26;97.53;96251.66;5043315;28;20676;-79
2023/01/28 09:18:51;;;;;;;25.07;16.90;;;;;;;-0.08;96.94;96248.31;5049119;28;20669;-79
2023/01/28 09:21:16;;;;;;;28.57;17.17;;;;;;;-0.23;97.76;96266.81;5051359;28;20236;-79
2023/01/28 09:23:42;;;;;;;23.40;16.07;;;;;;;-0.18;98.18;96263.16;5045553;28;20572;-78
2023/01/28 09:26:08;;;;;;;22.70;15.20;;;;;;;0.01;96.34;96263.22;5061137;28;20215;-79
2023/01/28 09:28:33;;;;;;;24.07;16.60;;;;;;;0.05;95.50;96272.41;5055134;28;20211;-80
2023/01/28 09:31:07;;;;;;;20.47;13.30;;;;;;;-0.22;97.54;96265.94;5046824;28;20696;-79
2023/01/28 09:33:34;;;;;;;23.57;17.13;;;;;;;-0.12;97.70;96274.84;5038270;28;20192;-79
2023/01/28 09:36:00;;;;;;;25.73;16.23;;;;;;;-0.17;98.74;96269.13;5030935;28;20184;-79
2023/01/28 09:38:26;;;;;;;21.13;13.80;;;;;;;-0.17;97.71;96275.06;5044599;28;20200;-78
2023/01/28 09:40:51;;;;;;;23.23;15.40;;;;;;;-0.08;96.90;96276.41;5036115;28;20224;-79
2023/01/28 09:43:58;;;;;;;22.27;15.17;;;;;;;0.07;97.32;96283.38;5020418;28;20192;-77
2023/01/28 09:46:29;;;;;;;26.37;16.93;;;;;;;-0.24;98.76;96286.41;5030026;28;20208;-79
2023/01/28 09:48:57;;;;;;;26.40;15.90;;;;;;;-0.17;98.53;96290.38;5043973;28;20192;-78
2023/01/28 09:51:41;;;;;;;26.17;16.57;;;;;;;0.00;98.29;96294.78;5040297;28;20217;-78
2023/01/28 09:54:18;;;;;;;20.90;15.33;;;;;;;0.19;96.69;96295.63;5043464;28;20211;-78
2023/01/28 09:56:45;;;;;;;23.53;15.60;;;;;;;0.13;96.62;96292.50;5042935;28;20195;-78
2023/01/28 09:59:32;;;;;;;27.13;15.43;;;;;;;0.14;97.03;96292.44;5037572;28;20189;-79
2023/01/28 10:02:10;;;;;;;20.27;14.17;;;;;;;0.31;95.15;96298.53;5051630;28;20253;-78
2023/01/28 10:04:53;;;;;;;24.17;15.50;;;;;;;0.22;95.07;96295.50;5047510;28;20202;-79
2023/01/28 10:07:44;;;;;;;21.27;14.73;;;;;;;0.40;94.79;96290.47;5053186;28;20180;-79
2023/01/28 10:10:16;;;;;;;21.00;14.27;;;;;;;0.02;95.48;96302.38;5015312;28;20297;-79
2023/01/28 10:13:18;;;;;;;21.17;13.80;;;;;;;-0.13;96.70;96291.06;5046406;28;20220;-78
2023/01/28 10:15:49;;;;;;;21.47;14.30;;;;;;;-0.05;96.54;96292.41;5049419;28;20213;-78
2023/01/28 10:18:14;;;;;;;24.47;13.70;;;;;;;-0.26;97.79;96277.16;5038565;28;20186;-78
2023/01/28 10:20:43;;;;;;;20.40;13.27;;;;;;;0.03;96.03;96284.41;5045052;28;20216;-79
2023/01/28 10:23:23;;;;;;;22.43;15.43;;;;;;;-0.02;96.49;96288.88;5039764;28;20192;-79
2023/01/28 10:25:49;;;;;;;24.20;15.53;;;;;;;0.30;93.86;96277.28;5045472;28;20200;-79
2023/01/28 10:28:20;;;;;;;24.00;15.13;;;;;;;0.09;94.64;96280.75;5051832;28;20183;-79
2023/01/28 10:30:46;;;;;;;27.40;17.60;;;;;;;0.00;95.07;96276.91;5041001;28;20575;-79
2023/01/28 10:33:19;;;;;;;23.00;15.07;;;;;;;0.07;95.86;96283.38;5044415;28;20185;-79
2023/01/28 10:35:44;;;;;;;24.63;17.13;;;;;;;0.23;94.46;96270.78;5043923;28;20698;-77
2023/01/28 10:38:13;;;;;;;27.13;17.23;;;;;;;0.20;94.91;96265.81;5051550;28;20197;-79
2023/01/28 10:40:41;;;;;;;37.03;22.63;;;;;;;0.25;94.07;96264.69;5060585;28;20216;-77
2023/01/28 10:43:07;;;;;;;26.30;17.03;;;;;;;0.27;94.77;96275.69;5054375;28;20190;-78
2023/01/28 10:45:53;;;;;;;26.90;17.67;;;;;;;0.20;95.38;96271.75;5052790;28;20221;-77
2023/01/28 10:48:23;;;;;;;26.87;16.43;;;;;;;0.30;94.60;96267.06;5041782;28;20211;-78
2023/01/28 10:50:55;;;;;;;32.23;19.90;;;;;;;0.42;93.41;96273.34;5040572;28;20301;-80
2023/01/28 10:53:33;;;;;;;30.57;20.77;;;;;;;0.26;94.59;96278.28;5035583;28;20181;-79
2023/01/28 10:55:59;;;;;;;28.90;17.93;;;;;;;0.12;94.97;96283.19;5033389;28;20216;-79
2023/01/28 10:58:28;;;;;;;28.07;17.73;;;;;;;0.41;94.05;96284.47;5039753;28;20193;-79
2023/01/28 11:00:56;;;;;;;19.57;12.87;;;;;;;0.31;94.92;96283.22;5039898;28;20230;-78
2023/01/28 11:03:22;;;;;;;22.57;14.73;;;;;;;0.20;94.40;96276.84;5041180;28;20201;-79
2023/01/28 11:05:52;;;;;;;21.20;14.67;;;;;;;0.53;93.31;96281.34;5046588;28;20202;-78
2023/01/28 11:08:18;;;;;;;21.83;14.63;;;;;;;0.55;93.11;96287.25;5053845;28;20212;-78
2023/01/28 11:10:45;;;;;;;19.50;12.90;;;;;;;0.64;92.70;96283.44;5037064;28;20217;-78
2023/01/28 11:13:21;;;;;;;20.67;13.57;;;;;;;0.49;92.09;96285.78;5047234;28;20197;-81
2023/01/28 11:16:03;;;;;;;21.03;14.60;;;;;;;0.57;92.31;96288.00;5049021;28;20276;-79
2023/01/28 11:18:39;;;;;;;19.77;12.13;;;;;;;0.34;92.30;96283.91;5022175;28;20256;-78
2023/01/28 11:21:06;;;;;;;29.33;17.70;;;;;;;0.12;93.57;96281.47;5046552;28;20236;-79
2023/01/28 11:23:47;;;;;;;36.40;19.97;;;;;;;0.25;93.23;96279.19;5035876;28;20313;-78
2023/01/28 11:26:17;;;;;;;25.10;15.93;;;;;;;0.03;94.12;96276.75;5036167;28;20566;-79
2023/01/28 11:28:43;;;;;;;25.63;16.67;;;;;;;0.16;93.80;96285.53;5034502;28;20201;-78
2023/01/28 11:31:11;;;;;;;19.37;14.07;;;;;;;0.19;94.52;96284.59;5036237;28;20244;-78
2023/01/28 11:33:49;;;;;;;39.77;25.17;;;;;;;0.72;92.36;96282.19;5043698;28;20287;-78
2023/01/28 11:36:21;;;;;;;35.97;25.77;;;;;;;0.75;92.06;96278.66;5052346;28;20268;-78
2023/01/28 11:38:50;;;;;;;32.60;23.67;;;;;;;0.85;91.47;96278.16;5037108;28;20224;-78
2023/01/28 11:41:16;;;;;;;26.20;20.70;;;;;;;0.59;91.17;96278.53;5034901;28;20245;-78
2023/01/28 11:43:43;;;;;;;22.33;15.07;;;;;;;0.57;91.98;96288.81;5038764;28;20188;-78
2023/01/28 11:46:12;;;;;;;18.93;12.60;;;;;;;0.47;92.58;96286.75;5026249;28;20220;-78
2023/01/28 11:48:58;;;;;;;19.90;12.67;;;;;;;0.39;92.39;96276.03;5052337;28;20192;-78
2023/01/28 11:51:42;;;;;;;17.97;12.07;;;;;;;0.36;91.66;96279.56;5033308;28;20213;-78
2023/01/28 11:54:22;;;;;;;28.67;19.10;;;;;;;0.36;92.84;96279.56;5049393;28;20235;-78
2023/01/28 11:56:58;;;;;;;21.83;15.67;;;;;;;0.46;93.09;96287.66;5049687;28;20188;-78